Terminal Aerodrome Forecast
Issued by NWS Quad Cities IA IL

Home | Current Version | Previous Version | Text Only | Print | Product List | Glossary On
Versions: 1 2 3 4 5 6 7 8 9 10 11 12 13 14 15 16 17 18 19 20 21 22 23 24 25 26 27
000
FTUS43 KDVN 141100
TAFDBQ
TAF
KDBQ 141123Z 1412/1512 35005KT P6SM SCT070
     FM141300 32009KT P6SM FEW070
     FM141500 31012KT P6SM SCT040
     FM141700 31016G22KT P6SM BKN040
     FM141930 31016G23KT P6SM VCSH BKN040
     FM150100 32011KT P6SM VCSH SCT040
     FM150300 32009KT P6SM SKC=

USA.gov is the U.S. government's official web portal to all federal, state and local government web resources and services.